sensor_id;sensor_type;location;lat;lon;timestamp;P1;durP1;ratioP1;P2;durP2;ratioP2
63012;SDS011;62113;45.624;11.700;2023-04-07T00:00:49;36.72;;;20.60;;
63012;SDS011;62113;45.624;11.700;2023-04-07T00:03:15;34.22;;;20.15;;
63012;SDS011;62113;45.624;11.700;2023-04-07T00:05:41;35.10;;;21.25;;
63012;SDS011;62113;45.624;11.700;2023-04-07T00:08:06;39.72;;;20.88;;
63012;SDS011;62113;45.624;11.700;2023-04-07T00:10:32;33.90;;;20.92;;
63012;SDS011;62113;45.624;11.700;2023-04-07T00:12:58;35.60;;;20.90;;
63012;SDS011;62113;45.624;11.700;2023-04-07T00:15:24;39.72;;;20.00;;
63012;SDS011;62113;45.624;11.700;2023-04-07T00:17:50;39.60;;;20.48;;
63012;SDS011;62113;45.624;11.700;2023-04-07T00:20:16;34.35;;;21.05;;
63012;SDS011;62113;45.624;11.700;2023-04-07T00:22:42;36.17;;;20.02;;
63012;SDS011;62113;45.624;11.700;2023-04-07T00:25:07;32.60;;;19.17;;
63012;SDS011;62113;45.624;11.700;2023-04-07T00:27:33;35.20;;;20.02;;
63012;SDS011;62113;45.624;11.700;2023-04-07T00:29:59;39.83;;;20.25;;
63012;SDS011;62113;45.624;11.700;2023-04-07T00:32:24;35.50;;;18.73;;
63012;SDS011;62113;45.624;11.700;2023-04-07T00:34:50;30.35;;;18.63;;
63012;SDS011;62113;45.624;11.700;2023-04-07T00:37:16;34.55;;;19.80;;
63012;SDS011;62113;45.624;11.700;2023-04-07T00:39:42;29.52;;;17.73;;
63012;SDS011;62113;45.624;11.700;2023-04-07T00:42:08;32.35;;;19.08;;
63012;SDS011;62113;45.624;11.700;2023-04-07T00:44:33;30.10;;;17.67;;
63012;SDS011;62113;45.624;11.700;2023-04-07T00:46:59;31.75;;;18.33;;
63012;SDS011;62113;45.624;11.700;2023-04-07T00:49:25;39.15;;;19.83;;
63012;SDS011;62113;45.624;11.700;2023-04-07T00:51:55;29.08;;;17.98;;
63012;SDS011;62113;45.624;11.700;2023-04-07T00:54:22;33.45;;;18.45;;
63012;SDS011;62113;45.624;11.700;2023-04-07T00:56:48;36.30;;;19.08;;
63012;SDS011;62113;45.624;11.700;2023-04-07T00:59:14;35.17;;;20.15;;
63012;SDS011;62113;45.624;11.700;2023-04-07T01:02:24;35.38;;;20.40;;
63012;SDS011;62113;45.624;11.700;2023-04-07T01:07:12;33.92;;;20.17;;
63012;SDS011;62113;45.624;11.700;2023-04-07T01:09:45;35.53;;;19.95;;
63012;SDS011;62113;45.624;11.700;2023-04-07T01:15:20;38.88;;;20.67;;
63012;SDS011;62113;45.624;11.700;2023-04-07T01:17:48;33.55;;;19.45;;
63012;SDS011;62113;45.624;11.700;2023-04-07T01:20:20;31.40;;;17.95;;
63012;SDS011;62113;45.624;11.700;2023-04-07T01:22:54;34.25;;;18.73;;
63012;SDS011;62113;45.624;11.700;2023-04-07T01:30:37;30.75;;;18.27;;
63012;SDS011;62113;45.624;11.700;2023-04-07T01:33:05;31.10;;;17.88;;
63012;SDS011;62113;45.624;11.700;2023-04-07T01:37:59;28.27;;;17.52;;
63012;SDS011;62113;45.624;11.700;2023-04-07T01:40:27;27.33;;;17.02;;
63012;SDS011;62113;45.624;11.700;2023-04-07T01:42:54;31.38;;;17.30;;
63012;SDS011;62113;45.624;11.700;2023-04-07T01:45:21;28.85;;;16.42;;
63012;SDS011;62113;45.624;11.700;2023-04-07T01:47:48;26.58;;;16.40;;
63012;SDS011;62113;45.624;11.700;2023-04-07T01:50:14;25.80;;;16.52;;
63012;SDS011;62113;45.624;11.700;2023-04-07T01:52:40;28.70;;;16.33;;
63012;SDS011;62113;45.624;11.700;2023-04-07T01:55:07;25.43;;;16.50;;
63012;SDS011;62113;45.624;11.700;2023-04-07T01:57:33;30.50;;;17.60;;
63012;SDS011;62113;45.624;11.700;2023-04-07T01:59:59;26.38;;;16.65;;
63012;SDS011;62113;45.624;11.700;2023-04-07T02:02:25;26.45;;;16.27;;
63012;SDS011;62113;45.624;11.700;2023-04-07T02:07:30;27.83;;;16.25;;
63012;SDS011;62113;45.624;11.700;2023-04-07T02:09:57;24.05;;;15.52;;
63012;SDS011;62113;45.624;11.700;2023-04-07T02:12:27;29.67;;;16.85;;
63012;SDS011;62113;45.624;11.700;2023-04-07T02:14:55;27.88;;;15.13;;
63012;SDS011;62113;45.624;11.700;2023-04-07T02:17:25;30.15;;;16.85;;
63012;SDS011;62113;45.624;11.700;2023-04-07T02:19:52;26.38;;;16.02;;
63012;SDS011;62113;45.624;11.700;2023-04-07T02:22:20;23.10;;;14.52;;
63012;SDS011;62113;45.624;11.700;2023-04-07T02:24:45;27.08;;;15.35;;
63012;SDS011;62113;45.624;11.700;2023-04-07T02:27:11;26.00;;;15.80;;
63012;SDS011;62113;45.624;11.700;2023-04-07T02:29:37;27.10;;;15.98;;
63012;SDS011;62113;45.624;11.700;2023-04-07T02:32:02;29.38;;;14.90;;
63012;SDS011;62113;45.624;11.700;2023-04-07T02:34:29;22.52;;;14.52;;
63012;SDS011;62113;45.624;11.700;2023-04-07T02:36:55;25.52;;;14.55;;
63012;SDS011;62113;45.624;11.700;2023-04-07T02:39:21;24.02;;;15.02;;
63012;SDS011;62113;45.624;11.700;2023-04-07T02:41:46;25.27;;;15.13;;
63012;SDS011;62113;45.624;11.700;2023-04-07T02:44:12;26.02;;;15.57;;
63012;SDS011;62113;45.624;11.700;2023-04-07T02:46:37;28.38;;;14.65;;
63012;SDS011;62113;45.624;11.700;2023-04-07T02:49:03;25.95;;;14.70;;
63012;SDS011;62113;45.624;11.700;2023-04-07T02:51:28;27.23;;;16.40;;
63012;SDS011;62113;45.624;11.700;2023-04-07T02:53:55;24.83;;;14.57;;
63012;SDS011;62113;45.624;11.700;2023-04-07T02:56:20;29.08;;;15.38;;
63012;SDS011;62113;45.624;11.700;2023-04-07T02:58:46;29.08;;;16.02;;
63012;SDS011;62113;45.624;11.700;2023-04-07T03:01:11;23.17;;;14.80;;
63012;SDS011;62113;45.624;11.700;2023-04-07T03:03:37;21.45;;;14.20;;
63012;SDS011;62113;45.624;11.700;2023-04-07T03:06:03;30.35;;;15.98;;
63012;SDS011;62113;45.624;11.700;2023-04-07T03:08:29;25.33;;;15.15;;
63012;SDS011;62113;45.624;11.700;2023-04-07T03:10:55;23.90;;;15.18;;
63012;SDS011;62113;45.624;11.700;2023-04-07T03:13:21;22.08;;;13.45;;
63012;SDS011;62113;45.624;11.700;2023-04-07T03:15:47;24.90;;;14.70;;
63012;SDS011;62113;45.624;11.700;2023-04-07T03:18:12;28.67;;;14.90;;
63012;SDS011;62113;45.624;11.700;2023-04-07T03:20:38;20.13;;;14.45;;
63012;SDS011;62113;45.624;11.700;2023-04-07T03:23:05;26.25;;;15.48;;
63012;SDS011;62113;45.624;11.700;2023-04-07T03:25:32;23.88;;;14.98;;
63012;SDS011;62113;45.624;11.700;2023-04-07T03:27:57;21.70;;;13.52;;
63012;SDS011;62113;45.624;11.700;2023-04-07T03:30:23;28.08;;;15.35;;
63012;SDS011;62113;45.624;11.700;2023-04-07T03:32:49;25.35;;;14.98;;
63012;SDS011;62113;45.624;11.700;2023-04-07T03:35:15;22.83;;;15.60;;
63012;SDS011;62113;45.624;11.700;2023-04-07T03:37:40;25.13;;;14.93;;
63012;SDS011;62113;45.624;11.700;2023-04-07T03:40:06;22.88;;;14.85;;
63012;SDS011;62113;45.624;11.700;2023-04-07T03:42:32;27.90;;;16.15;;
63012;SDS011;62113;45.624;11.700;2023-04-07T03:44:57;30.73;;;15.60;;
63012;SDS011;62113;45.624;11.700;2023-04-07T03:47:23;24.38;;;14.27;;
63012;SDS011;62113;45.624;11.700;2023-04-07T03:49:49;20.73;;;13.77;;
63012;SDS011;62113;45.624;11.700;2023-04-07T03:52:15;19.35;;;13.15;;
63012;SDS011;62113;45.624;11.700;2023-04-07T03:54:40;22.92;;;14.45;;
63012;SDS011;62113;45.624;11.700;2023-04-07T03:57:06;21.75;;;13.45;;
63012;SDS011;62113;45.624;11.700;2023-04-07T03:59:32;26.27;;;14.30;;
63012;SDS011;62113;45.624;11.700;2023-04-07T04:01:57;23.08;;;13.02;;
63012;SDS011;62113;45.624;11.700;2023-04-07T04:04:23;25.08;;;14.05;;
63012;SDS011;62113;45.624;11.700;2023-04-07T04:06:49;26.02;;;13.65;;
63012;SDS011;62113;45.624;11.700;2023-04-07T04:09:15;37.13;;;12.85;;
63012;SDS011;62113;45.624;11.700;2023-04-07T04:11:41;19.58;;;11.40;;
63012;SDS011;62113;45.624;11.700;2023-04-07T04:14:06;24.45;;;12.45;;
63012;SDS011;62113;45.624;11.700;2023-04-07T04:16:32;17.13;;;12.35;;
63012;SDS011;62113;45.624;11.700;2023-04-07T04:18:59;21.85;;;11.90;;
63012;SDS011;62113;45.624;11.700;2023-04-07T04:21:25;19.08;;;11.77;;
63012;SDS011;62113;45.624;11.700;2023-04-07T04:23:51;14.75;;;10.88;;
63012;SDS011;62113;45.624;11.700;2023-04-07T04:26:17;27.92;;;12.75;;
63012;SDS011;62113;45.624;11.700;2023-04-07T04:28:43;20.35;;;11.85;;
63012;SDS011;62113;45.624;11.700;2023-04-07T04:31:08;24.08;;;12.32;;
63012;SDS011;62113;45.624;11.700;2023-04-07T04:33:34;19.95;;;12.60;;
63012;SDS011;62113;45.624;11.700;2023-04-07T04:36:00;25.20;;;11.73;;
63012;SDS011;62113;45.624;11.700;2023-04-07T04:38:25;23.60;;;12.27;;
63012;SDS011;62113;45.624;11.700;2023-04-07T04:40:51;24.35;;;13.10;;
63012;SDS011;62113;45.624;11.700;2023-04-07T04:43:17;16.90;;;12.40;;
63012;SDS011;62113;45.624;11.700;2023-04-07T04:45:42;18.55;;;12.40;;
63012;SDS011;62113;45.624;11.700;2023-04-07T04:48:08;21.40;;;12.65;;
63012;SDS011;62113;45.624;11.700;2023-04-07T04:50:34;20.35;;;12.05;;
63012;SDS011;62113;45.624;11.700;2023-04-07T04:53:00;19.58;;;12.65;;
63012;SDS011;62113;45.624;11.700;2023-04-07T04:55:26;20.83;;;12.35;;
63012;SDS011;62113;45.624;11.700;2023-04-07T04:57:52;19.17;;;12.55;;
63012;SDS011;62113;45.624;11.700;2023-04-07T05:00:18;26.50;;;13.05;;
63012;SDS011;62113;45.624;11.700;2023-04-07T05:02:44;21.07;;;13.27;;
63012;SDS011;62113;45.624;11.700;2023-04-07T05:05:10;18.45;;;12.77;;
63012;SDS011;62113;45.624;11.700;2023-04-07T05:07:36;20.25;;;12.63;;
63012;SDS011;62113;45.624;11.700;2023-04-07T05:10:04;19.95;;;12.02;;
63012;SDS011;62113;45.624;11.700;2023-04-07T05:14:56;19.50;;;11.80;;
63012;SDS011;62113;45.624;11.700;2023-04-07T05:17:22;20.92;;;13.27;;
63012;SDS011;62113;45.624;11.700;2023-04-07T05:19:48;23.88;;;13.30;;
63012;SDS011;62113;45.624;11.700;2023-04-07T05:22:13;29.55;;;16.17;;
63012;SDS011;62113;45.624;11.700;2023-04-07T05:24:39;37.47;;;18.58;;
63012;SDS011;62113;45.624;11.700;2023-04-07T05:27:05;30.40;;;16.75;;
63012;SDS011;62113;45.624;11.700;2023-04-07T05:29:30;27.33;;;17.10;;
63012;SDS011;62113;45.624;11.700;2023-04-07T05:31:56;29.27;;;17.30;;
63012;SDS011;62113;45.624;11.700;2023-04-07T05:34:21;35.97;;;18.38;;
63012;SDS011;62113;45.624;11.700;2023-04-07T05:36:47;37.40;;;18.55;;
63012;SDS011;62113;45.624;11.700;2023-04-07T05:39:13;32.90;;;18.08;;
63012;SDS011;62113;45.624;11.700;2023-04-07T05:41:38;30.38;;;16.85;;
63012;SDS011;62113;45.624;11.700;2023-04-07T05:44:04;36.28;;;17.67;;
63012;SDS011;62113;45.624;11.700;2023-04-07T05:46:30;32.03;;;17.53;;
63012;SDS011;62113;45.624;11.700;2023-04-07T05:48:56;34.65;;;16.23;;
63012;SDS011;62113;45.624;11.700;2023-04-07T05:51:21;33.75;;;15.98;;
63012;SDS011;62113;45.624;11.700;2023-04-07T05:53:47;28.05;;;15.45;;
63012;SDS011;62113;45.624;11.700;2023-04-07T05:56:13;26.60;;;15.52;;
63012;SDS011;62113;45.624;11.700;2023-04-07T05:58:38;39.78;;;15.43;;
63012;SDS011;62113;45.624;11.700;2023-04-07T06:01:04;46.53;;;20.00;;
63012;SDS011;62113;45.624;11.700;2023-04-07T06:03:30;28.98;;;15.40;;
63012;SDS011;62113;45.624;11.700;2023-04-07T06:05:56;20.23;;;13.38;;
63012;SDS011;62113;45.624;11.700;2023-04-07T06:08:22;34.60;;;17.15;;
63012;SDS011;62113;45.624;11.700;2023-04-07T06:10:48;31.42;;;15.35;;
63012;SDS011;62113;45.624;11.700;2023-04-07T06:13:13;27.90;;;14.90;;
63012;SDS011;62113;45.624;11.700;2023-04-07T06:15:39;31.23;;;15.70;;
63012;SDS011;62113;45.624;11.700;2023-04-07T06:18:05;19.63;;;13.90;;
63012;SDS011;62113;45.624;11.700;2023-04-07T06:20:30;25.90;;;14.48;;
63012;SDS011;62113;45.624;11.700;2023-04-07T06:22:56;27.83;;;16.10;;
63012;SDS011;62113;45.624;11.700;2023-04-07T06:25:22;29.27;;;15.13;;
63012;SDS011;62113;45.624;11.700;2023-04-07T06:27:47;27.23;;;15.33;;
63012;SDS011;62113;45.624;11.700;2023-04-07T06:30:13;22.37;;;14.37;;
63012;SDS011;62113;45.624;11.700;2023-04-07T06:32:39;33.15;;;13.63;;
63012;SDS011;62113;45.624;11.700;2023-04-07T06:35:05;20.60;;;12.90;;
63012;SDS011;62113;45.624;11.700;2023-04-07T06:37:31;23.08;;;11.60;;
63012;SDS011;62113;45.624;11.700;2023-04-07T06:39:57;18.00;;;11.80;;
63012;SDS011;62113;45.624;11.700;2023-04-07T06:42:22;20.30;;;11.90;;
63012;SDS011;62113;45.624;11.700;2023-04-07T06:44:48;18.23;;;11.00;;
63012;SDS011;62113;45.624;11.700;2023-04-07T06:47:13;17.80;;;11.80;;
63012;SDS011;62113;45.624;11.700;2023-04-07T06:49:39;18.03;;;11.47;;
63012;SDS011;62113;45.624;11.700;2023-04-07T06:52:05;16.73;;;11.23;;
63012;SDS011;62113;45.624;11.700;2023-04-07T06:54:31;19.97;;;11.87;;
63012;SDS011;62113;45.624;11.700;2023-04-07T06:56:56;19.87;;;13.27;;
63012;SDS011;62113;45.624;11.700;2023-04-07T06:59:22;15.47;;;12.03;;
63012;SDS011;62113;45.624;11.700;2023-04-07T07:01:48;15.53;;;11.33;;
63012;SDS011;62113;45.624;11.700;2023-04-07T07:04:13;17.47;;;11.33;;
63012;SDS011;62113;45.624;11.700;2023-04-07T07:06:39;19.57;;;12.13;;
63012;SDS011;62113;45.624;11.700;2023-04-07T07:09:05;27.90;;;12.67;;
63012;SDS011;62113;45.624;11.700;2023-04-07T07:11:30;24.03;;;11.40;;
63012;SDS011;62113;45.624;11.700;2023-04-07T07:13:56;17.23;;;11.03;;
63012;SDS011;62113;45.624;11.700;2023-04-07T07:16:22;21.70;;;10.97;;
63012;SDS011;62113;45.624;11.700;2023-04-07T07:18:50;19.60;;;10.60;;
63012;SDS011;62113;45.624;11.700;2023-04-07T07:21:16;13.37;;;9.80;;
63012;SDS011;62113;45.624;11.700;2023-04-07T07:23:42;19.35;;;10.15;;
63012;SDS011;62113;45.624;11.700;2023-04-07T07:26:08;23.10;;;10.50;;
63012;SDS011;62113;45.624;11.700;2023-04-07T07:28:34;20.10;;;11.13;;
63012;SDS011;62113;45.624;11.700;2023-04-07T07:31:00;15.60;;;10.35;;
63012;SDS011;62113;45.624;11.700;2023-04-07T07:33:34;18.95;;;9.27;;
63012;SDS011;62113;45.624;11.700;2023-04-07T07:35:59;15.02;;;8.82;;
63012;SDS011;62113;45.624;11.700;2023-04-07T07:38:25;14.10;;;9.68;;
63012;SDS011;62113;45.624;11.700;2023-04-07T07:40:51;14.35;;;8.38;;
63012;SDS011;62113;45.624;11.700;2023-04-07T07:43:17;18.52;;;9.63;;
63012;SDS011;62113;45.624;11.700;2023-04-07T07:45:42;12.30;;;8.77;;
63012;SDS011;62113;45.624;11.700;2023-04-07T07:48:08;17.27;;;9.43;;
63012;SDS011;62113;45.624;11.700;2023-04-07T07:50:34;20.92;;;9.35;;
63012;SDS011;62113;45.624;11.700;2023-04-07T07:53:00;16.15;;;9.23;;
63012;SDS011;62113;45.624;11.700;2023-04-07T07:55:26;20.42;;;9.77;;
63012;SDS011;62113;45.624;11.700;2023-04-07T07:57:51;16.98;;;9.60;;
63012;SDS011;62113;45.624;11.700;2023-04-07T08:00:17;14.38;;;8.77;;
63012;SDS011;62113;45.624;11.700;2023-04-07T08:02:43;11.55;;;8.52;;
63012;SDS011;62113;45.624;11.700;2023-04-07T08:05:08;11.63;;;9.13;;
63012;SDS011;62113;45.624;11.700;2023-04-07T08:10:00;13.18;;;8.50;;
63012;SDS011;62113;45.624;11.700;2023-04-07T08:17:17;13.45;;;9.07;;
63012;SDS011;62113;45.624;11.700;2023-04-07T08:19:42;16.98;;;9.68;;
63012;SDS011;62113;45.624;11.700;2023-04-07T08:22:08;21.23;;;10.32;;
63012;SDS011;62113;45.624;11.700;2023-04-07T08:24:33;16.20;;;9.63;;
63012;SDS011;62113;45.624;11.700;2023-04-07T08:26:59;25.08;;;11.88;;
63012;SDS011;62113;45.624;11.700;2023-04-07T08:29:25;16.83;;;9.95;;
63012;SDS011;62113;45.624;11.700;2023-04-07T08:31:51;19.70;;;10.90;;
63012;SDS011;62113;45.624;11.700;2023-04-07T08:34:16;30.50;;;11.37;;
63012;SDS011;62113;45.624;11.700;2023-04-07T08:36:44;24.38;;;11.73;;
63012;SDS011;62113;45.624;11.700;2023-04-07T08:39:10;18.60;;;11.50;;
63012;SDS011;62113;45.624;11.700;2023-04-07T08:41:37;21.73;;;12.30;;
63012;SDS011;62113;45.624;11.700;2023-04-07T08:44:03;21.63;;;12.55;;
63012;SDS011;62113;45.624;11.700;2023-04-07T08:46:31;18.42;;;11.18;;
63012;SDS011;62113;45.624;11.700;2023-04-07T08:48:58;24.58;;;12.18;;
63012;SDS011;62113;45.624;11.700;2023-04-07T08:51:29;15.63;;;11.05;;
63012;SDS011;62113;45.624;11.700;2023-04-07T08:56:26;16.67;;;11.18;;
63012;SDS011;62113;45.624;11.700;2023-04-07T08:58:52;19.47;;;11.80;;
63012;SDS011;62113;45.624;11.700;2023-04-07T09:01:19;22.70;;;12.65;;
63012;SDS011;62113;45.624;11.700;2023-04-07T09:03:45;22.73;;;12.23;;
63012;SDS011;62113;45.624;11.700;2023-04-07T09:06:13;20.02;;;12.15;;
63012;SDS011;62113;45.624;11.700;2023-04-07T09:08:40;20.05;;;11.63;;
63012;SDS011;62113;45.624;11.700;2023-04-07T09:11:05;24.60;;;12.20;;
63012;SDS011;62113;45.624;11.700;2023-04-07T09:13:31;18.87;;;12.07;;
63012;SDS011;62113;45.624;11.700;2023-04-07T09:15:58;18.90;;;12.48;;
63012;SDS011;62113;45.624;11.700;2023-04-07T09:18:26;21.23;;;12.27;;
63012;SDS011;62113;45.624;11.700;2023-04-07T09:20:59;30.20;;;12.85;;
63012;SDS011;62113;45.624;11.700;2023-04-07T09:25:57;29.15;;;13.25;;
63012;SDS011;62113;45.624;11.700;2023-04-07T09:28:24;23.95;;;12.07;;
63012;SDS011;62113;45.624;11.700;2023-04-07T09:30:53;22.65;;;12.95;;
63012;SDS011;62113;45.624;11.700;2023-04-07T09:33:28;23.05;;;12.30;;
63012;SDS011;62113;45.624;11.700;2023-04-07T09:35:54;16.30;;;12.13;;
63012;SDS011;62113;45.624;11.700;2023-04-07T09:38:21;18.83;;;11.50;;
63012;SDS011;62113;45.624;11.700;2023-04-07T09:40:46;18.60;;;11.68;;
63012;SDS011;62113;45.624;11.700;2023-04-07T09:43:14;21.65;;;12.50;;
63012;SDS011;62113;45.624;11.700;2023-04-07T09:45:41;18.88;;;11.07;;
63012;SDS011;62113;45.624;11.700;2023-04-07T09:48:07;18.77;;;10.90;;
63012;SDS011;62113;45.624;11.700;2023-04-07T09:50:42;17.10;;;11.52;;
63012;SDS011;62113;45.624;11.700;2023-04-07T09:53:09;20.67;;;11.82;;
63012;SDS011;62113;45.624;11.700;2023-04-07T09:55:35;18.10;;;12.07;;
63012;SDS011;62113;45.624;11.700;2023-04-07T09:58:03;17.45;;;12.18;;
63012;SDS011;62113;45.624;11.700;2023-04-07T10:02:56;16.60;;;11.45;;
63012;SDS011;62113;45.624;11.700;2023-04-07T10:07:49;15.65;;;9.77;;
63012;SDS011;62113;45.624;11.700;2023-04-07T10:10:15;15.88;;;10.77;;
63012;SDS011;62113;45.624;11.700;2023-04-07T10:12:41;22.40;;;10.33;;
63012;SDS011;62113;45.624;11.700;2023-04-07T10:15:07;15.47;;;10.57;;
63012;SDS011;62113;45.624;11.700;2023-04-07T10:17:35;17.27;;;10.65;;
63012;SDS011;62113;45.624;11.700;2023-04-07T10:20:04;14.95;;;9.88;;
63012;SDS011;62113;45.624;11.700;2023-04-07T10:22:33;16.40;;;10.23;;
63012;SDS011;62113;45.624;11.700;2023-04-07T10:25:05;17.40;;;9.68;;
63012;SDS011;62113;45.624;11.700;2023-04-07T10:27:39;18.70;;;9.77;;
63012;SDS011;62113;45.624;11.700;2023-04-07T10:30:16;20.35;;;10.52;;
63012;SDS011;62113;45.624;11.700;2023-04-07T10:32:51;12.95;;;9.82;;
63012;SDS011;62113;45.624;11.700;2023-04-07T10:35:18;19.92;;;10.07;;
63012;SDS011;62113;45.624;11.700;2023-04-07T10:40:35;21.13;;;10.98;;
63012;SDS011;62113;45.624;11.700;2023-04-07T10:43:01;14.40;;;9.77;;
63012;SDS011;62113;45.624;11.700;2023-04-07T10:48:18;14.80;;;10.98;;
63012;SDS011;62113;45.624;11.700;2023-04-07T10:50:45;18.92;;;10.63;;
63012;SDS011;62113;45.624;11.700;2023-04-07T10:53:31;17.00;;;11.00;;
63012;SDS011;62113;45.624;11.700;2023-04-07T10:58:26;15.95;;;11.27;;
63012;SDS011;62113;45.624;11.700;2023-04-07T11:03:37;17.65;;;10.50;;
63012;SDS011;62113;45.624;11.700;2023-04-07T11:06:04;14.77;;;10.90;;
63012;SDS011;62113;45.624;11.700;2023-04-07T11:08:35;18.08;;;11.30;;
63012;SDS011;62113;45.624;11.700;2023-04-07T11:11:01;20.70;;;11.18;;
63012;SDS011;62113;45.624;11.700;2023-04-07T11:13:39;13.07;;;9.85;;
63012;SDS011;62113;45.624;11.700;2023-04-07T11:16:12;16.60;;;10.70;;
63012;SDS011;62113;45.624;11.700;2023-04-07T11:18:39;22.67;;;11.85;;
63012;SDS011;62113;45.624;11.700;2023-04-07T11:21:05;16.73;;;11.02;;
63012;SDS011;62113;45.624;11.700;2023-04-07T11:23:41;16.00;;;10.73;;
63012;SDS011;62113;45.624;11.700;2023-04-07T11:26:09;20.17;;;11.82;;
63012;SDS011;62113;45.624;11.700;2023-04-07T11:28:43;18.25;;;11.25;;
63012;SDS011;62113;45.624;11.700;2023-04-07T11:34:01;17.33;;;11.73;;
63012;SDS011;62113;45.624;11.700;2023-04-07T11:38:56;18.05;;;11.45;;
63012;SDS011;62113;45.624;11.700;2023-04-07T11:41:22;20.92;;;12.52;;
63012;SDS011;62113;45.624;11.700;2023-04-07T11:44:02;18.63;;;12.32;;
63012;SDS011;62113;45.624;11.700;2023-04-07T11:46:31;18.88;;;12.13;;
63012;SDS011;62113;45.624;11.700;2023-04-07T11:49:07;17.07;;;11.73;;
63012;SDS011;62113;45.624;11.700;2023-04-07T11:51:37;19.83;;;12.23;;
63012;SDS011;62113;45.624;11.700;2023-04-07T11:54:03;21.63;;;12.53;;
63012;SDS011;62113;45.624;11.700;2023-04-07T11:56:29;25.60;;;11.80;;
63012;SDS011;62113;45.624;11.700;2023-04-07T11:59:05;31.90;;;11.97;;
63012;SDS011;62113;45.624;11.700;2023-04-07T12:01:39;26.10;;;13.57;;
63012;SDS011;62113;45.624;11.700;2023-04-07T12:04:05;18.23;;;12.48;;
63012;SDS011;62113;45.624;11.700;2023-04-07T12:06:36;16.50;;;11.68;;
63012;SDS011;62113;45.624;11.700;2023-04-07T12:09:07;21.48;;;12.35;;
63012;SDS011;62113;45.624;11.700;2023-04-07T12:11:53;20.35;;;12.95;;
63012;SDS011;62113;45.624;11.700;2023-04-07T12:14:19;26.20;;;12.45;;
63012;SDS011;62113;45.624;11.700;2023-04-07T12:16:45;19.90;;;12.20;;
63012;SDS011;62113;45.624;11.700;2023-04-07T12:19:10;22.70;;;12.57;;
63012;SDS011;62113;45.624;11.700;2023-04-07T12:21:36;23.58;;;13.85;;
63012;SDS011;62113;45.624;11.700;2023-04-07T12:24:02;20.23;;;13.40;;
63012;SDS011;62113;45.624;11.700;2023-04-07T12:26:28;20.07;;;13.83;;
63012;SDS011;62113;45.624;11.700;2023-04-07T12:28:53;28.93;;;13.50;;
63012;SDS011;62113;45.624;11.700;2023-04-07T12:31:20;22.90;;;14.05;;
63012;SDS011;62113;45.624;11.700;2023-04-07T12:33:46;22.67;;;13.40;;
63012;SDS011;62113;45.624;11.700;2023-04-07T12:36:11;20.70;;;13.90;;
63012;SDS011;62113;45.624;11.700;2023-04-07T12:38:37;25.07;;;14.00;;
63012;SDS011;62113;45.624;11.700;2023-04-07T12:41:02;23.80;;;14.43;;
63012;SDS011;62113;45.624;11.700;2023-04-07T12:43:29;23.20;;;14.47;;
63012;SDS011;62113;45.624;11.700;2023-04-07T12:45:55;25.77;;;15.23;;
63012;SDS011;62113;45.624;11.700;2023-04-07T12:48:21;21.95;;;13.60;;
63012;SDS011;62113;45.624;11.700;2023-04-07T12:50:47;27.42;;;14.13;;
63012;SDS011;62113;45.624;11.700;2023-04-07T12:53:13;20.73;;;13.10;;
63012;SDS011;62113;45.624;11.700;2023-04-07T12:55:39;26.63;;;14.30;;
63012;SDS011;62113;45.624;11.700;2023-04-07T12:58:04;22.80;;;15.00;;
63012;SDS011;62113;45.624;11.700;2023-04-07T13:00:33;23.35;;;14.50;;
63012;SDS011;62113;45.624;11.700;2023-04-07T13:02:58;23.77;;;14.93;;
63012;SDS011;62113;45.624;11.700;2023-04-07T13:05:24;28.57;;;15.60;;
63012;SDS011;62113;45.624;11.700;2023-04-07T13:07:49;25.77;;;14.87;;
63012;SDS011;62113;45.624;11.700;2023-04-07T13:10:15;25.27;;;15.17;;
63012;SDS011;62113;45.624;11.700;2023-04-07T13:12:41;24.07;;;15.90;;
63012;SDS011;62113;45.624;11.700;2023-04-07T13:15:07;24.10;;;15.30;;
63012;SDS011;62113;45.624;11.700;2023-04-07T13:17:33;23.58;;;16.17;;
63012;SDS011;62113;45.624;11.700;2023-04-07T13:20:01;25.30;;;16.25;;
63012;SDS011;62113;45.624;11.700;2023-04-07T13:22:27;28.77;;;16.75;;
63012;SDS011;62113;45.624;11.700;2023-04-07T13:24:53;28.83;;;16.57;;
63012;SDS011;62113;45.624;11.700;2023-04-07T13:27:19;28.30;;;15.50;;
63012;SDS011;62113;45.624;11.700;2023-04-07T13:29:45;22.13;;;15.57;;
63012;SDS011;62113;45.624;11.700;2023-04-07T13:32:11;29.70;;;16.30;;
63012;SDS011;62113;45.624;11.700;2023-04-07T13:34:37;24.17;;;15.73;;
63012;SDS011;62113;45.624;11.700;2023-04-07T13:37:03;26.37;;;15.83;;
63012;SDS011;62113;45.624;11.700;2023-04-07T13:39:29;29.13;;;17.02;;
63012;SDS011;62113;45.624;11.700;2023-04-07T13:44:22;23.23;;;15.10;;
63012;SDS011;62113;45.624;11.700;2023-04-07T13:46:48;21.63;;;15.30;;
63012;SDS011;62113;45.624;11.700;2023-04-07T13:49:14;25.00;;;15.83;;
63012;SDS011;62113;45.624;11.700;2023-04-07T13:51:40;24.43;;;15.90;;
63012;SDS011;62113;45.624;11.700;2023-04-07T13:54:06;25.13;;;15.23;;
63012;SDS011;62113;45.624;11.700;2023-04-07T13:56:31;22.60;;;15.77;;
63012;SDS011;62113;45.624;11.700;2023-04-07T13:58:59;20.85;;;14.27;;
63012;SDS011;62113;45.624;11.700;2023-04-07T14:01:25;23.60;;;15.40;;
63012;SDS011;62113;45.624;11.700;2023-04-07T14:03:52;27.48;;;17.23;;
63012;SDS011;62113;45.624;11.700;2023-04-07T14:06:18;24.47;;;15.47;;
63012;SDS011;62113;45.624;11.700;2023-04-07T14:08:46;27.83;;;15.93;;
63012;SDS011;62113;45.624;11.700;2023-04-07T14:11:16;22.80;;;14.50;;
63012;SDS011;62113;45.624;11.700;2023-04-07T14:13:42;36.03;;;16.77;;
63012;SDS011;62113;45.624;11.700;2023-04-07T14:16:08;29.70;;;15.57;;
63012;SDS011;62113;45.624;11.700;2023-04-07T14:18:34;22.10;;;15.47;;
63012;SDS011;62113;45.624;11.700;2023-04-07T14:20:59;30.17;;;15.97;;
63012;SDS011;62113;45.624;11.700;2023-04-07T14:23:27;20.30;;;14.85;;
63012;SDS011;62113;45.624;11.700;2023-04-07T14:25:53;24.40;;;15.00;;
63012;SDS011;62113;45.624;11.700;2023-04-07T14:28:18;26.73;;;15.80;;
63012;SDS011;62113;45.624;11.700;2023-04-07T14:30:45;31.65;;;15.98;;
63012;SDS011;62113;45.624;11.700;2023-04-07T14:33:11;27.00;;;16.23;;
63012;SDS011;62113;45.624;11.700;2023-04-07T14:35:36;29.13;;;16.63;;
63012;SDS011;62113;45.624;11.700;2023-04-07T14:38:02;29.90;;;16.03;;
63012;SDS011;62113;45.624;11.700;2023-04-07T14:40:28;28.30;;;16.37;;
63012;SDS011;62113;45.624;11.700;2023-04-07T14:42:53;33.63;;;16.27;;
63012;SDS011;62113;45.624;11.700;2023-04-07T14:45:19;33.90;;;15.63;;
63012;SDS011;62113;45.624;11.700;2023-04-07T14:47:45;29.80;;;16.10;;
63012;SDS011;62113;45.624;11.700;2023-04-07T14:50:11;22.40;;;12.10;;
63012;SDS011;62113;45.624;11.700;2023-04-07T14:52:36;28.13;;;14.17;;
63012;SDS011;62113;45.624;11.700;2023-04-07T14:55:02;28.17;;;13.93;;
63012;SDS011;62113;45.624;11.700;2023-04-07T14:57:28;28.03;;;12.93;;
63012;SDS011;62113;45.624;11.700;2023-04-07T14:59:53;31.20;;;14.40;;
63012;SDS011;62113;45.624;11.700;2023-04-07T15:02:19;26.13;;;13.60;;